Keene, NH

11:45 AM EDT on March 27, 2017 (GMT -0400)
Court St. | | Change Station

Elev 522 ft 42.94 °N, 72.29 °W | Updated 27 seconds ago

Light Snow
Light Snow Mist
36.9 °F
Feels Like 37 °F
N
1.0
Wind Variable Wind from WNW

Today
High -- | Low -- °F
--% Chance of Precip.
Yesterday
High -- | Low -- °F
Precip. -- in
Pressure 30.14 in
Visibility 3.0 miles
Clouds Few 200 ft
Scattered Clouds 900 ft
Overcast 1900 ft
Windchill 37 °F
Dew Point 35 °F
Humidity 93%
Rainfall 0.81 in
Snow Depth Not available.
6:39 AM 7:09 PM
Waning Crescent, 0% visible
SPECI KEEN 271505Z AUTO 33004KT 3SM -SN BR FEW002 SCT009 OVC019 02/01 A3014 RMK AO2 P0003 FZRANO
Pressure 30.14 in
Visibility 3.0 miles
Clouds Few 200 ft
Scattered Clouds 900 ft
Overcast 1900 ft
Windchill 37 °F
Dew Point 35 °F
Humidity 93%
Rainfall 0.81 in
Snow Depth Not available.
6:39 AM 7:09 PM
Waning Crescent, 0% visible
SPECI KEEN 271505Z AUTO 33004KT 3SM -SN BR FEW002 SCT009 OVC019 02/01 A3014 RMK AO2 P0003 FZRANO

Get Severe Weather Alerts

Thanks for signing up!

Be on the lookout for a verification email in your inbox.

You'll start receiving the daily forecast at 8 AM.

×

10-Day Weather Forecast

Almanac

Astronomy

Mar. 27, 2017 Rise Set
Actual Time
Civil Twilight
Nautical Twilight
Astronomical Twilight
Moon
Length of Visible Light
Length of Day
Tomorrow will be .
, % of the Moon is Illuminated

Today's Extremes

State Highs State Lows

Community

WunderPhotos

Upload Photos

1,962,540 photos uploaded!

WunderBlog® & News

Nearby

Air Quality

  Air Quality AQ Index Pollutant
Not available.

Snow Depth

Station Depth Elevation

Earthquake Activity

City Distance Mag. Time & Date
Minimum magnitude displayed is 2.5.

Earthquake Activity

City Distance Mag. Time & Date
Minimum magnitude displayed is 2.5.

Coastal Water Temperatures

Place Temperature

Stations

Nearby Weather Stations

Station Location Temp. Windchill Dew Point Humidity Wind Precip. Elev Updated Type
                   

Watches & Warnings

There are currently no watches in effect.